sensor_id;sensor_type;location;lat;lon;timestamp;pressure;altitude;pressure_sealevel;temperature;humidity
11678;BME280;5895;41.950;24.372;2023-03-25T00:01:07;86621.75;;;4.90;66.08
11678;BME280;5895;41.950;24.372;2023-03-25T00:03:39;86603.97;;;4.82;66.34
11678;BME280;5895;41.950;24.372;2023-03-25T00:06:08;86610.69;;;4.76;66.71
11678;BME280;5895;41.950;24.372;2023-03-25T00:08:37;86606.75;;;4.67;67.17
11678;BME280;5895;41.950;24.372;2023-03-25T00:11:06;86601.59;;;4.73;68.18
11678;BME280;5895;41.950;24.372;2023-03-25T00:13:34;86603.38;;;4.73;66.79
11678;BME280;5895;41.950;24.372;2023-03-25T00:16:03;86607.13;;;4.70;67.07
11678;BME280;5895;41.950;24.372;2023-03-25T00:18:31;86602.78;;;4.71;66.79
11678;BME280;5895;41.950;24.372;2023-03-25T00:21:00;86603.59;;;4.71;67.32
11678;BME280;5895;41.950;24.372;2023-03-25T00:23:29;86599.63;;;4.75;67.40
11678;BME280;5895;41.950;24.372;2023-03-25T00:25:57;86603.38;;;4.80;67.81
11678;BME280;5895;41.950;24.372;2023-03-25T00:28:28;86597.44;;;4.86;68.65
11678;BME280;5895;41.950;24.372;2023-03-25T00:30:58;86587.75;;;4.88;68.56
11678;BME280;5895;41.950;24.372;2023-03-25T00:33:26;86585.19;;;4.94;67.87
11678;BME280;5895;41.950;24.372;2023-03-25T00:35:54;86580.03;;;5.01;68.01
11678;BME280;5895;41.950;24.372;2023-03-25T00:38:25;86577.44;;;5.01;68.22
11678;BME280;5895;41.950;24.372;2023-03-25T00:40:58;86582.19;;;5.04;67.97
11678;BME280;5895;41.950;24.372;2023-03-25T00:43:32;86580.59;;;5.03;69.00
11678;BME280;5895;41.950;24.372;2023-03-25T00:46:00;86572.69;;;5.04;68.95
11678;BME280;5895;41.950;24.372;2023-03-25T00:48:27;86571.50;;;5.07;68.79
11678;BME280;5895;41.950;24.372;2023-03-25T00:50:54;86559.81;;;5.04;69.43
11678;BME280;5895;41.950;24.372;2023-03-25T00:53:21;86570.31;;;5.03;68.82
11678;BME280;5895;41.950;24.372;2023-03-25T00:55:48;86566.56;;;4.99;68.45
11678;BME280;5895;41.950;24.372;2023-03-25T00:58:15;86565.97;;;4.97;68.72
11678;BME280;5895;41.950;24.372;2023-03-25T01:00:44;86560.84;;;4.97;69.32
11678;BME280;5895;41.950;24.372;2023-03-25T01:03:12;86560.06;;;4.96;68.76
11678;BME280;5895;41.950;24.372;2023-03-25T01:05:40;86568.75;;;4.95;69.81
11678;BME280;5895;41.950;24.372;2023-03-25T01:08:07;86564.19;;;4.97;69.03
11678;BME280;5895;41.950;24.372;2023-03-25T01:10:35;86550.56;;;4.97;69.65
11678;BME280;5895;41.950;24.372;2023-03-25T01:13:02;86549.56;;;4.98;69.26
11678;BME280;5895;41.950;24.372;2023-03-25T01:15:29;86554.13;;;4.96;69.49
11678;BME280;5895;41.950;24.372;2023-03-25T01:17:58;86558.47;;;4.95;69.80
11678;BME280;5895;41.950;24.372;2023-03-25T01:20:25;86546.81;;;4.93;69.53
11678;BME280;5895;41.950;24.372;2023-03-25T01:22:52;86544.66;;;4.90;69.33
11678;BME280;5895;41.950;24.372;2023-03-25T01:25:19;86545.03;;;4.87;69.57
11678;BME280;5895;41.950;24.372;2023-03-25T01:27:47;86540.91;;;4.86;69.69
11678;BME280;5895;41.950;24.372;2023-03-25T01:30:14;86535.19;;;4.84;69.65
11678;BME280;5895;41.950;24.372;2023-03-25T01:32:42;86534.97;;;4.78;69.26
11678;BME280;5895;41.950;24.372;2023-03-25T01:35:10;86537.94;;;4.75;69.35
11678;BME280;5895;41.950;24.372;2023-03-25T01:37:37;86534.00;;;4.73;69.44
11678;BME280;5895;41.950;24.372;2023-03-25T01:40:06;86525.31;;;4.74;69.33
11678;BME280;5895;41.950;24.372;2023-03-25T01:42:34;86529.66;;;4.73;69.68
11678;BME280;5895;41.950;24.372;2023-03-25T01:45:24;86524.91;;;4.70;72.92
11678;BME280;5895;41.950;24.372;2023-03-25T01:47:57;86533.03;;;4.67;71.20
11678;BME280;5895;41.950;24.372;2023-03-25T01:50:27;86520.97;;;4.68;69.87
11678;BME280;5895;41.950;24.372;2023-03-25T01:52:58;86521.78;;;4.62;68.81
11678;BME280;5895;41.950;24.372;2023-03-25T01:55:28;86513.88;;;4.57;69.42
11678;BME280;5895;41.950;24.372;2023-03-25T01:57:58;86517.63;;;4.54;69.63
11678;BME280;5895;41.950;24.372;2023-03-25T02:00:27;86513.09;;;4.49;69.55
11678;BME280;5895;41.950;24.372;2023-03-25T02:02:57;86511.13;;;4.45;70.04
11678;BME280;5895;41.950;24.372;2023-03-25T02:05:32;86509.72;;;4.42;70.81
11678;BME280;5895;41.950;24.372;2023-03-25T02:08:04;86509.94;;;4.41;70.19
11678;BME280;5895;41.950;24.372;2023-03-25T02:10:34;86507.38;;;4.41;70.01
11678;BME280;5895;41.950;24.372;2023-03-25T02:13:02;86499.66;;;4.41;69.97
11678;BME280;5895;41.950;24.372;2023-03-25T02:15:41;86499.66;;;4.41;71.65
11678;BME280;5895;41.950;24.372;2023-03-25T02:18:19;86508.34;;;4.40;71.71
11678;BME280;5895;41.950;24.372;2023-03-25T02:21:28;86506.78;;;4.39;74.10
11678;BME280;5895;41.950;24.372;2023-03-25T02:27:20;86498.66;;;4.42;72.57
11678;BME280;5895;41.950;24.372;2023-03-25T02:30:30;86502.81;;;4.43;74.00
11678;BME280;5895;41.950;24.372;2023-03-25T02:33:28;86500.84;;;4.45;74.23
11678;BME280;5895;41.950;24.372;2023-03-25T02:39:13;86499.66;;;4.47;72.47
11678;BME280;5895;41.950;24.372;2023-03-25T02:41:48;86493.72;;;4.47;72.07
11678;BME280;5895;41.950;24.372;2023-03-25T02:44:24;86497.28;;;4.46;72.16
11678;BME280;5895;41.950;24.372;2023-03-25T02:46:55;86499.28;;;4.44;71.15
11678;BME280;5895;41.950;24.372;2023-03-25T02:49:26;86492.53;;;4.43;71.51
11678;BME280;5895;41.950;24.372;2023-03-25T02:51:59;86488.00;;;4.45;72.61
11678;BME280;5895;41.950;24.372;2023-03-25T02:54:30;86490.56;;;4.45;71.74
11678;BME280;5895;41.950;24.372;2023-03-25T02:56:59;86490.78;;;4.43;71.09
11678;BME280;5895;41.950;24.372;2023-03-25T02:59:29;86482.88;;;4.45;71.87
11678;BME280;5895;41.950;24.372;2023-03-25T03:01:58;86475.75;;;4.47;71.30
11678;BME280;5895;41.950;24.372;2023-03-25T03:04:26;86481.09;;;4.45;71.34
11678;BME280;5895;41.950;24.372;2023-03-25T03:06:54;86480.31;;;4.45;71.78
11678;BME280;5895;41.950;24.372;2023-03-25T03:09:34;86473.19;;;4.47;73.76
11678;BME280;5895;41.950;24.372;2023-03-25T03:12:14;86474.16;;;4.46;73.31
11678;BME280;5895;41.950;24.372;2023-03-25T03:14:58;86479.31;;;4.46;73.75
11678;BME280;5895;41.950;24.372;2023-03-25T03:17:34;86474.56;;;4.43;71.43
11678;BME280;5895;41.950;24.372;2023-03-25T03:20:14;86477.53;;;4.40;73.02
11678;BME280;5895;41.950;24.372;2023-03-25T03:22:48;86474.38;;;4.38;72.23
11678;BME280;5895;41.950;24.372;2023-03-25T03:25:26;86471.00;;;4.37;72.85
11678;BME280;5895;41.950;24.372;2023-03-25T03:27:56;86478.53;;;4.39;71.86
11678;BME280;5895;41.950;24.372;2023-03-25T03:30:32;86473.56;;;4.37;72.24
11678;BME280;5895;41.950;24.372;2023-03-25T03:33:06;86474.56;;;4.36;72.12
11678;BME280;5895;41.950;24.372;2023-03-25T03:35:41;86474.78;;;4.35;72.70
11678;BME280;5895;41.950;24.372;2023-03-25T03:38:15;86473.22;;;4.34;72.07
11678;BME280;5895;41.950;24.372;2023-03-25T03:40:50;86463.72;;;4.28;73.84
11678;BME280;5895;41.950;24.372;2023-03-25T03:43:22;86467.88;;;4.29;72.94
11678;BME280;5895;41.950;24.372;2023-03-25T03:45:53;86465.69;;;4.25;72.32
11678;BME280;5895;41.950;24.372;2023-03-25T03:48:24;86465.69;;;4.25;72.70
11678;BME280;5895;41.950;24.372;2023-03-25T03:50:55;86467.69;;;4.23;71.93
11678;BME280;5895;41.950;24.372;2023-03-25T03:53:28;86466.09;;;4.22;72.68
11678;BME280;5895;41.950;24.372;2023-03-25T03:56:02;86461.19;;;4.21;72.99
11678;BME280;5895;41.950;24.372;2023-03-25T03:58:35;86456.22;;;4.19;72.86
11678;BME280;5895;41.950;24.372;2023-03-25T04:01:07;86457.78;;;4.20;72.90
11678;BME280;5895;41.950;24.372;2023-03-25T04:03:41;86459.41;;;4.21;73.55
11678;BME280;5895;41.950;24.372;2023-03-25T04:06:16;86461.97;;;4.21;73.78
11678;BME280;5895;41.950;24.372;2023-03-25T04:08:53;86456.03;;;4.21;74.03
11678;BME280;5895;41.950;24.372;2023-03-25T04:11:28;86456.41;;;4.24;73.34
11678;BME280;5895;41.950;24.372;2023-03-25T04:13:59;86457.81;;;4.27;73.00
11678;BME280;5895;41.950;24.372;2023-03-25T04:16:27;86455.81;;;4.29;72.91
11678;BME280;5895;41.950;24.372;2023-03-25T04:18:54;86449.47;;;4.32;73.16
11678;BME280;5895;41.950;24.372;2023-03-25T04:21:22;86460.56;;;4.32;73.36
11678;BME280;5895;41.950;24.372;2023-03-25T04:23:50;86458.59;;;4.34;73.28
11678;BME280;5895;41.950;24.372;2023-03-25T04:26:17;86455.81;;;4.36;73.20
11678;BME280;5895;41.950;24.372;2023-03-25T04:28:47;86462.34;;;4.38;73.23
11678;BME280;5895;41.950;24.372;2023-03-25T04:31:16;86462.72;;;4.42;73.18
11678;BME280;5895;41.950;24.372;2023-03-25T04:33:43;86468.44;;;4.44;72.85
11678;BME280;5895;41.950;24.372;2023-03-25T04:36:13;86464.47;;;4.48;73.14
11678;BME280;5895;41.950;24.372;2023-03-25T04:38:40;86458.94;;;4.51;73.13
11678;BME280;5895;41.950;24.372;2023-03-25T04:41:10;86479.06;;;4.54;73.90
11678;BME280;5895;41.950;24.372;2023-03-25T04:43:38;86463.06;;;4.59;73.36
11678;BME280;5895;41.950;24.372;2023-03-25T04:46:11;86464.47;;;4.61;74.96
11678;BME280;5895;41.950;24.372;2023-03-25T04:48:39;86470.00;;;4.58;73.01
11678;BME280;5895;41.950;24.372;2023-03-25T04:51:10;86470.78;;;4.59;72.84
11678;BME280;5895;41.950;24.372;2023-03-25T04:53:39;86463.66;;;4.54;72.62
11678;BME280;5895;41.950;24.372;2023-03-25T04:56:11;86472.38;;;4.53;73.78
11678;BME280;5895;41.950;24.372;2023-03-25T04:58:40;86470.78;;;4.52;72.72
11678;BME280;5895;41.950;24.372;2023-03-25T05:01:19;86473.56;;;4.50;74.93
11678;BME280;5895;41.950;24.372;2023-03-25T05:03:48;86479.50;;;4.51;73.33
11678;BME280;5895;41.950;24.372;2023-03-25T05:06:16;86473.56;;;4.50;72.65
11678;BME280;5895;41.950;24.372;2023-03-25T05:08:43;86472.00;;;4.49;73.29
11678;BME280;5895;41.950;24.372;2023-03-25T05:11:10;86473.94;;;4.54;73.56
11678;BME280;5895;41.950;24.372;2023-03-25T05:13:38;86477.13;;;4.56;73.32
11678;BME280;5895;41.950;24.372;2023-03-25T05:16:06;86477.13;;;4.56;73.49
11678;BME280;5895;41.950;24.372;2023-03-25T05:18:34;86477.13;;;4.56;73.43
11678;BME280;5895;41.950;24.372;2023-03-25T05:21:01;86480.25;;;4.58;73.30
11678;BME280;5895;41.950;24.372;2023-03-25T05:23:29;86479.47;;;4.58;72.88
11678;BME280;5895;41.950;24.372;2023-03-25T05:25:56;86474.75;;;4.61;73.05
11678;BME280;5895;41.950;24.372;2023-03-25T05:28:24;86475.72;;;4.60;72.73
11678;BME280;5895;41.950;24.372;2023-03-25T05:30:51;86467.81;;;4.62;72.46
11678;BME280;5895;41.950;24.372;2023-03-25T05:33:18;86471.97;;;4.63;73.13
11678;BME280;5895;41.950;24.372;2023-03-25T05:35:47;86478.28;;;4.67;72.80
11678;BME280;5895;41.950;24.372;2023-03-25T05:38:14;86476.69;;;4.72;73.37
11678;BME280;5895;41.950;24.372;2023-03-25T05:40:43;86476.88;;;4.77;73.78
11678;BME280;5895;41.950;24.372;2023-03-25T05:43:11;86478.63;;;4.84;73.54
11678;BME280;5895;41.950;24.372;2023-03-25T05:45:39;86480.78;;;4.87;73.12
11678;BME280;5895;41.950;24.372;2023-03-25T05:48:06;86479.19;;;4.92;73.86
11678;BME280;5895;41.950;24.372;2023-03-25T05:50:35;86480.94;;;5.05;72.89
11678;BME280;5895;41.950;24.372;2023-03-25T05:53:03;86483.63;;;5.23;73.11
11678;BME280;5895;41.950;24.372;2023-03-25T05:55:30;86471.28;;;5.39;72.54
11678;BME280;5895;41.950;24.372;2023-03-25T05:57:58;86469.22;;;5.54;72.66
11678;BME280;5895;41.950;24.372;2023-03-25T06:00:25;86475.88;;;5.68;71.78
11678;BME280;5895;41.950;24.372;2023-03-25T06:02:53;86470.22;;;5.84;71.65
11678;BME280;5895;41.950;24.372;2023-03-25T06:05:20;86469.75;;;6.01;71.77
11678;BME280;5895;41.950;24.372;2023-03-25T06:07:49;86470.44;;;6.15;71.62
11678;BME280;5895;41.950;24.372;2023-03-25T06:10:18;86463.97;;;6.30;70.68
11678;BME280;5895;41.950;24.372;2023-03-25T06:12:46;86465.41;;;6.45;71.36
11678;BME280;5895;41.950;24.372;2023-03-25T06:15:15;86475.19;;;6.61;70.59
11678;BME280;5895;41.950;24.372;2023-03-25T06:17:45;86471.84;;;6.79;69.99
11678;BME280;5895;41.950;24.372;2023-03-25T06:20:13;86472.06;;;6.96;70.44
11678;BME280;5895;41.950;24.372;2023-03-25T06:22:44;86467.94;;;7.13;72.63
11678;BME280;5895;41.950;24.372;2023-03-25T06:25:14;86472.50;;;7.29;73.85
11678;BME280;5895;41.950;24.372;2023-03-25T06:27:45;86468.34;;;7.47;72.68
11678;BME280;5895;41.950;24.372;2023-03-25T06:30:15;86473.69;;;7.63;71.77
11678;BME280;5895;41.950;24.372;2023-03-25T06:32:43;86478.03;;;7.81;71.14
11678;BME280;5895;41.950;24.372;2023-03-25T06:35:16;86464.63;;;8.03;71.72
11678;BME280;5895;41.950;24.372;2023-03-25T06:37:44;86471.28;;;8.22;69.97
11678;BME280;5895;41.950;24.372;2023-03-25T06:40:13;86463.16;;;8.37;67.98
11678;BME280;5895;41.950;24.372;2023-03-25T06:42:40;86464.38;;;8.58;67.64
11678;BME280;5895;41.950;24.372;2023-03-25T06:45:09;86458.78;;;8.72;69.00
11678;BME280;5895;41.950;24.372;2023-03-25T06:47:37;86460.59;;;8.95;66.17
11678;BME280;5895;41.950;24.372;2023-03-25T06:50:05;86474.41;;;9.13;65.83
11678;BME280;5895;41.950;24.372;2023-03-25T06:52:33;86464.63;;;9.26;65.90
11678;BME280;5895;41.950;24.372;2023-03-25T06:55:00;86472.78;;;9.47;65.51
11678;BME280;5895;41.950;24.372;2023-03-25T06:57:27;86470.59;;;9.67;64.90
11678;BME280;5895;41.950;24.372;2023-03-25T06:59:54;86474.03;;;9.85;64.65
11678;BME280;5895;41.950;24.372;2023-03-25T07:02:23;86467.00;;;9.97;64.94
11678;BME280;5895;41.950;24.372;2023-03-25T07:04:50;86473.34;;;10.18;64.30
11678;BME280;5895;41.950;24.372;2023-03-25T07:07:17;86476.78;;;10.35;63.40
11678;BME280;5895;41.950;24.372;2023-03-25T07:09:49;86476.09;;;10.56;64.37
11678;BME280;5895;41.950;24.372;2023-03-25T07:12:17;86468.09;;;10.75;62.99
11678;BME280;5895;41.950;24.372;2023-03-25T07:14:49;86480.03;;;10.93;62.33
11678;BME280;5895;41.950;24.372;2023-03-25T07:17:17;86475.06;;;11.08;61.80
11678;BME280;5895;41.950;24.372;2023-03-25T07:19:45;86480.16;;;11.20;60.86
11678;BME280;5895;41.950;24.372;2023-03-25T07:22:13;86479.34;;;11.36;60.92
11678;BME280;5895;41.950;24.372;2023-03-25T07:24:40;86476.91;;;11.46;60.14
11678;BME280;5895;41.950;24.372;2023-03-25T07:27:09;86477.94;;;11.67;59.74
11678;BME280;5895;41.950;24.372;2023-03-25T07:29:36;86479.50;;;11.85;59.14
11678;BME280;5895;41.950;24.372;2023-03-25T07:32:04;86475.56;;;12.04;59.22
11678;BME280;5895;41.950;24.372;2023-03-25T07:34:31;86474.44;;;12.22;58.50
11678;BME280;5895;41.950;24.372;2023-03-25T07:37:00;86485.31;;;12.41;57.81
11678;BME280;5895;41.950;24.372;2023-03-25T07:39:28;86477.47;;;12.63;58.11
11678;BME280;5895;41.950;24.372;2023-03-25T07:41:55;86475.81;;;12.84;57.57
11678;BME280;5895;41.950;24.372;2023-03-25T07:44:22;86482.03;;;13.10;57.04
11678;BME280;5895;41.950;24.372;2023-03-25T07:46:49;86484.03;;;13.35;56.53
11678;BME280;5895;41.950;24.372;2023-03-25T07:49:17;86480.53;;;13.56;56.61
11678;BME280;5895;41.950;24.372;2023-03-25T07:51:44;86476.22;;;13.77;55.86
11678;BME280;5895;41.950;24.372;2023-03-25T07:54:13;86469.53;;;13.96;55.26
11678;BME280;5895;41.950;24.372;2023-03-25T07:56:40;86470.41;;;14.17;56.16
11678;BME280;5895;41.950;24.372;2023-03-25T07:59:07;86474.16;;;14.37;55.24
11678;BME280;5895;41.950;24.372;2023-03-25T08:01:35;86471.88;;;14.55;54.96
11678;BME280;5895;41.950;24.372;2023-03-25T08:04:02;86473.22;;;14.78;55.12
11678;BME280;5895;41.950;24.372;2023-03-25T08:06:29;86468.28;;;14.97;54.76
11678;BME280;5895;41.950;24.372;2023-03-25T08:08:56;86477.69;;;15.19;54.17
11678;BME280;5895;41.950;24.372;2023-03-25T08:11:25;86468.03;;;15.34;53.45
11678;BME280;5895;41.950;24.372;2023-03-25T08:13:52;86466.97;;;15.56;53.90
11678;BME280;5895;41.950;24.372;2023-03-25T08:16:19;86469.06;;;15.64;53.44
11678;BME280;5895;41.950;24.372;2023-03-25T08:18:46;86471.16;;;15.72;52.81
11678;BME280;5895;41.950;24.372;2023-03-25T08:21:17;86470.09;;;15.83;53.01
11678;BME280;5895;41.950;24.372;2023-03-25T08:23:50;86482.88;;;15.95;53.10
11678;BME280;5895;41.950;24.372;2023-03-25T08:26:24;86482.59;;;16.12;53.21
11678;BME280;5895;41.950;24.372;2023-03-25T08:28:52;86479.13;;;16.22;52.81
11678;BME280;5895;41.950;24.372;2023-03-25T08:31:22;86478.63;;;16.25;52.01
11678;BME280;5895;41.950;24.372;2023-03-25T08:33:49;86479.41;;;16.25;52.50
11678;BME280;5895;41.950;24.372;2023-03-25T08:36:16;86474.16;;;16.30;52.76
11678;BME280;5895;41.950;24.372;2023-03-25T08:38:47;86476.19;;;16.44;52.26
11678;BME280;5895;41.950;24.372;2023-03-25T08:41:15;86475.34;;;16.53;52.43
11678;BME280;5895;41.950;24.372;2023-03-25T08:43:43;86475.03;;;16.65;51.22
11678;BME280;5895;41.950;24.372;2023-03-25T08:46:11;86474.53;;;16.73;52.08
11678;BME280;5895;41.950;24.372;2023-03-25T08:48:38;86472.84;;;16.92;51.96
11678;BME280;5895;41.950;24.372;2023-03-25T08:51:06;86466.75;;;17.02;51.54
11678;BME280;5895;41.950;24.372;2023-03-25T08:53:33;86459.06;;;17.16;51.63
11678;BME280;5895;41.950;24.372;2023-03-25T08:56:01;86462.63;;;17.30;51.44
11678;BME280;5895;41.950;24.372;2023-03-25T08:58:28;86457.81;;;17.42;50.74
11678;BME280;5895;41.950;24.372;2023-03-25T09:00:56;86459.84;;;17.51;50.24
11678;BME280;5895;41.950;24.372;2023-03-25T09:03:24;86455.53;;;17.65;50.91
11678;BME280;5895;41.950;24.372;2023-03-25T09:05:52;86453.88;;;17.79;50.21
11678;BME280;5895;41.950;24.372;2023-03-25T09:08:19;86450.59;;;17.92;50.01
11678;BME280;5895;41.950;24.372;2023-03-25T09:10:46;86455.50;;;17.99;50.18
11678;BME280;5895;41.950;24.372;2023-03-25T09:13:13;86456.19;;;18.10;50.02
11678;BME280;5895;41.950;24.372;2023-03-25T09:15:41;86453.97;;;18.22;50.01
11678;BME280;5895;41.950;24.372;2023-03-25T09:18:09;86449.88;;;18.35;49.61
11678;BME280;5895;41.950;24.372;2023-03-25T09:20:37;86447.91;;;18.45;49.95
11678;BME280;5895;41.950;24.372;2023-03-25T09:23:04;86441.00;;;18.55;50.03
11678;BME280;5895;41.950;24.372;2023-03-25T09:25:31;86443.47;;;18.70;49.19
11678;BME280;5895;41.950;24.372;2023-03-25T09:27:59;86440.31;;;18.68;49.09
11678;BME280;5895;41.950;24.372;2023-03-25T09:30:26;86438.22;;;18.70;49.14
11678;BME280;5895;41.950;24.372;2023-03-25T09:32:53;86451.50;;;18.79;49.38
11678;BME280;5895;41.950;24.372;2023-03-25T09:35:22;86440.78;;;18.94;48.23
11678;BME280;5895;41.950;24.372;2023-03-25T09:37:49;86441.34;;;19.10;48.88
11678;BME280;5895;41.950;24.372;2023-03-25T09:40:17;86436.50;;;19.17;48.74
11678;BME280;5895;41.950;24.372;2023-03-25T09:43:02;86433.25;;;19.25;45.05
11678;BME280;5895;41.950;24.372;2023-03-25T09:45:35;86434.50;;;19.46;47.96
11678;BME280;5895;41.950;24.372;2023-03-25T09:48:23;86425.19;;;19.54;41.31
11678;BME280;5895;41.950;24.372;2023-03-25T09:50:53;86427.97;;;19.63;47.42
11678;BME280;5895;41.950;24.372;2023-03-25T09:53:29;86421.97;;;19.76;42.28
11678;BME280;5895;41.950;24.372;2023-03-25T09:55:59;86421.03;;;19.99;47.01
11678;BME280;5895;41.950;24.372;2023-03-25T09:58:33;86428.06;;;20.18;45.91
11678;BME280;5895;41.950;24.372;2023-03-25T10:01:18;86415.13;;;20.21;43.54
11678;BME280;5895;41.950;24.372;2023-03-25T10:03:55;86412.19;;;20.23;42.20
11678;BME280;5895;41.950;24.372;2023-03-25T10:06:29;86411.41;;;20.36;44.92
11678;BME280;5895;41.950;24.372;2023-03-25T10:09:07;86400.97;;;20.58;42.99
11678;BME280;5895;41.950;24.372;2023-03-25T10:11:44;86395.34;;;20.65;42.09
11678;BME280;5895;41.950;24.372;2023-03-25T10:14:18;86402.84;;;20.72;44.49
11678;BME280;5895;41.950;24.372;2023-03-25T10:16:57;86395.69;;;20.86;41.48
11678;BME280;5895;41.950;24.372;2023-03-25T10:19:42;86391.44;;;20.99;38.02
11678;BME280;5895;41.950;24.372;2023-03-25T10:22:20;86390.41;;;20.86;43.48
11678;BME280;5895;41.950;24.372;2023-03-25T10:24:52;86386.81;;;20.68;46.38
11678;BME280;5895;41.950;24.372;2023-03-25T10:27:25;86385.84;;;20.78;46.33
11678;BME280;5895;41.950;24.372;2023-03-25T10:29:55;86377.72;;;20.88;46.33
11678;BME280;5895;41.950;24.372;2023-03-25T10:32:31;86376.38;;;20.77;43.49
11678;BME280;5895;41.950;24.372;2023-03-25T10:35:02;86373.84;;;20.72;44.95
11678;BME280;5895;41.950;24.372;2023-03-25T10:37:34;86369.34;;;20.72;43.70
11678;BME280;5895;41.950;24.372;2023-03-25T10:40:13;86367.97;;;20.75;41.19
11678;BME280;5895;41.950;24.372;2023-03-25T10:42:49;86360.59;;;20.49;40.89
11678;BME280;5895;41.950;24.372;2023-03-25T10:45:22;86367.97;;;20.20;47.36
11678;BME280;5895;41.950;24.372;2023-03-25T10:47:52;86366.59;;;19.81;46.63
11678;BME280;5895;41.950;24.372;2023-03-25T10:50:20;86375.19;;;20.00;47.26
11678;BME280;5895;41.950;24.372;2023-03-25T10:52:50;86361.25;;;20.14;44.32
11678;BME280;5895;41.950;24.372;2023-03-25T10:55:22;86352.94;;;20.34;43.74
11678;BME280;5895;41.950;24.372;2023-03-25T10:57:51;86352.25;;;20.70;46.46
11678;BME280;5895;41.950;24.372;2023-03-25T11:00:19;86356.00;;;20.91;43.68
11678;BME280;5895;41.950;24.372;2023-03-25T11:02:48;86350.38;;;20.84;46.21
11678;BME280;5895;41.950;24.372;2023-03-25T11:05:18;86355.31;;;20.99;45.49
11678;BME280;5895;41.950;24.372;2023-03-25T11:07:50;86339.75;;;21.11;43.40
11678;BME280;5895;41.950;24.372;2023-03-25T11:10:21;86345.03;;;21.11;44.16
11678;BME280;5895;41.950;24.372;2023-03-25T11:12:50;86347.53;;;20.94;45.21
11678;BME280;5895;41.950;24.372;2023-03-25T11:15:20;86343.38;;;20.66;41.12
11678;BME280;5895;41.950;24.372;2023-03-25T11:17:56;86340.91;;;20.69;41.44
11678;BME280;5895;41.950;24.372;2023-03-25T11:20:27;86334.34;;;20.94;42.72
11678;BME280;5895;41.950;24.372;2023-03-25T11:23:04;86339.56;;;21.08;39.88
11678;BME280;5895;41.950;24.372;2023-03-25T11:25:40;86332.06;;;21.01;37.50
11678;BME280;5895;41.950;24.372;2023-03-25T11:28:21;86327.56;;;21.02;38.41
11678;BME280;5895;41.950;24.372;2023-03-25T11:31:09;86319.06;;;21.05;38.55
11678;BME280;5895;41.950;24.372;2023-03-25T11:33:38;86321.75;;;21.13;44.99
11678;BME280;5895;41.950;24.372;2023-03-25T11:36:27;86318.28;;;21.49;38.39
11678;BME280;5895;41.950;24.372;2023-03-25T11:38:58;86309.00;;;21.52;40.41
11678;BME280;5895;41.950;24.372;2023-03-25T11:41:31;86309.66;;;21.57;39.01
11678;BME280;5895;41.950;24.372;2023-03-25T11:43:59;86318.03;;;21.59;44.65
11678;BME280;5895;41.950;24.372;2023-03-25T11:46:27;86312.75;;;21.59;44.23
11678;BME280;5895;41.950;24.372;2023-03-25T11:48:54;86304.59;;;21.70;44.34
11678;BME280;5895;41.950;24.372;2023-03-25T11:51:23;86303.41;;;21.53;43.45
11678;BME280;5895;41.950;24.372;2023-03-25T11:53:55;86304.22;;;21.85;42.21
11678;BME280;5895;41.950;24.372;2023-03-25T11:56:28;86291.63;;;22.22;40.53
11678;BME280;5895;41.950;24.372;2023-03-25T11:58:59;86285.19;;;22.45;43.36
11678;BME280;5895;41.950;24.372;2023-03-25T12:01:35;86284.81;;;22.38;43.50
11678;BME280;5895;41.950;24.372;2023-03-25T12:04:14;86282.06;;;22.60;37.78
11678;BME280;5895;41.950;24.372;2023-03-25T12:06:53;86280.41;;;22.73;35.69
11678;BME280;5895;41.950;24.372;2023-03-25T12:09:22;86280.84;;;22.84;43.49
11678;BME280;5895;41.950;24.372;2023-03-25T12:11:58;86265.44;;;22.68;38.66
11678;BME280;5895;41.950;24.372;2023-03-25T12:14:37;86279.31;;;22.83;37.57
11678;BME280;5895;41.950;24.372;2023-03-25T12:17:17;86265.63;;;22.89;36.52
11678;BME280;5895;41.950;24.372;2023-03-25T12:19:56;86266.91;;;22.92;37.84
11678;BME280;5895;41.950;24.372;2023-03-25T12:22:39;86258.63;;;22.67;36.57
11678;BME280;5895;41.950;24.372;2023-03-25T12:25:23;86259.09;;;22.87;36.11
11678;BME280;5895;41.950;24.372;2023-03-25T12:28:04;86263.13;;;22.84;37.53
11678;BME280;5895;41.950;24.372;2023-03-25T12:30:44;86252.34;;;22.55;38.35
11678;BME280;5895;41.950;24.372;2023-03-25T12:33:23;86254.09;;;22.77;40.18
11678;BME280;5895;41.950;24.372;2023-03-25T12:36:12;86245.41;;;23.02;37.90
11678;BME280;5895;41.950;24.372;2023-03-25T12:38:48;86249.59;;;23.12;39.40
11678;BME280;5895;41.950;24.372;2023-03-25T12:41:22;86242.28;;;23.00;42.32
11678;BME280;5895;41.950;24.372;2023-03-25T12:44:01;86239.19;;;22.89;35.14
11678;BME280;5895;41.950;24.372;2023-03-25T12:46:45;86238.88;;;23.08;37.96
11678;BME280;5895;41.950;24.372;2023-03-25T12:49:26;86236.34;;;23.38;38.75
11678;BME280;5895;41.950;24.372;2023-03-25T12:52:02;86228.19;;;23.60;40.55
11678;BME280;5895;41.950;24.372;2023-03-25T12:54:41;86226.34;;;23.69;39.50
11678;BME280;5895;41.950;24.372;2023-03-25T12:57:17;86230.69;;;23.65;38.55
11678;BME280;5895;41.950;24.372;2023-03-25T13:00:03;86217.84;;;23.85;35.86
11678;BME280;5895;41.950;24.372;2023-03-25T13:03:02;86220.25;;;24.07;34.34
11678;BME280;5895;41.950;24.372;2023-03-25T13:05:39;86208.31;;;23.92;38.70
11678;BME280;5895;41.950;24.372;2023-03-25T13:08:13;86206.72;;;23.53;39.22
11678;BME280;5895;41.950;24.372;2023-03-25T13:10:42;86203.50;;;23.30;42.35
11678;BME280;5895;41.950;24.372;2023-03-25T13:13:16;86215.97;;;23.21;41.78
11678;BME280;5895;41.950;24.372;2023-03-25T13:15:48;86209.63;;;23.13;37.02
11678;BME280;5895;41.950;24.372;2023-03-25T13:18:18;86208.06;;;22.95;42.84
11678;BME280;5895;41.950;24.372;2023-03-25T13:20:50;86211.81;;;23.03;41.55
11678;BME280;5895;41.950;24.372;2023-03-25T13:23:24;86210.53;;;23.09;43.77
11678;BME280;5895;41.950;24.372;2023-03-25T13:25:54;86202.41;;;23.22;42.94
11678;BME280;5895;41.950;24.372;2023-03-25T13:28:27;86195.25;;;23.23;39.90
11678;BME280;5895;41.950;24.372;2023-03-25T13:30:57;86202.59;;;23.09;42.92
11678;BME280;5895;41.950;24.372;2023-03-25T13:33:28;86203.84;;;22.94;42.84